createdAt,value
2023-03-18T00:00:44.900Z,992.4
2023-03-18T00:01:46.035Z,992.4
2023-03-18T00:02:47.267Z,992.4
2023-03-18T00:03:48.985Z,992.4
2023-03-18T00:04:50.508Z,992.5
2023-03-18T00:05:51.921Z,992.5
2023-03-18T00:06:53.478Z,992.5
2023-03-18T00:07:55.142Z,992.6
2023-03-18T00:08:56.552Z,992.5
2023-03-18T00:09:57.444Z,992.5
2023-03-18T00:10:58.864Z,992.5
2023-03-18T00:12:00.278Z,992.6
2023-03-18T00:13:01.412Z,992.6
2023-03-18T00:14:02.834Z,992.6
2023-03-18T00:15:04.273Z,992.6
2023-03-18T00:16:05.601Z,992.6
2023-03-18T00:17:07.520Z,992.6
2023-03-18T00:18:08.937Z,992.7
2023-03-18T00:19:10.347Z,992.7
2023-03-18T00:20:11.763Z,992.7
2023-03-18T00:21:12.902Z,992.7
2023-03-18T00:22:14.320Z,992.7
2023-03-18T00:23:15.735Z,992.7
2023-03-18T00:24:16.641Z,992.7
2023-03-18T00:25:18.056Z,992.7
2023-03-18T00:26:19.471Z,992.7
2023-03-18T00:27:20.887Z,992.7
2023-03-18T00:28:22.309Z,992.7
2023-03-18T00:29:23.721Z,992.7
2023-03-18T00:30:25.161Z,992.8
2023-03-18T00:31:26.710Z,992.8
2023-03-18T00:32:28.172Z,992.8
2023-03-18T00:33:29.441Z,992.8
2023-03-18T00:34:30.853Z,992.7
2023-03-18T00:35:32.508Z,992.8
2023-03-18T00:36:33.712Z,992.7
2023-03-18T00:37:35.121Z,992.7
2023-03-18T00:38:36.544Z,992.7
2023-03-18T00:39:37.954Z,992.6
2023-03-18T00:40:39.369Z,992.6
2023-03-18T00:41:40.588Z,992.6
2023-03-18T00:42:42.006Z,992.6
2023-03-18T00:43:43.419Z,992.6
2023-03-18T00:44:44.840Z,992.6
2023-03-18T00:45:45.996Z,992.6
2023-03-18T00:46:47.583Z,992.5
2023-03-18T00:47:49.312Z,992.5
2023-03-18T00:48:50.729Z,992.5
2023-03-18T00:49:52.153Z,992.5
2023-03-18T00:50:53.570Z,992.5
2023-03-18T00:51:54.704Z,992.5
2023-03-18T00:52:56.122Z,992.6
2023-03-18T00:53:57.542Z,992.6
2023-03-18T00:54:58.963Z,992.6
2023-03-18T00:56:00.371Z,992.6
2023-03-18T00:57:01.509Z,992.7
2023-03-18T00:58:02.923Z,992.7
2023-03-18T00:59:04.339Z,992.7
2023-03-18T01:00:05.754Z,992.7
2023-03-18T01:01:07.271Z,992.7
2023-03-18T01:02:09.082Z,992.7
2023-03-18T01:03:10.582Z,992.7
2023-03-18T01:04:12.038Z,992.7
2023-03-18T01:05:13.430Z,992.8
2023-03-18T01:06:14.837Z,992.8
2023-03-18T01:07:16.253Z,992.8
2023-03-18T01:08:17.673Z,992.7
2023-03-18T01:09:19.086Z,992.7
2023-03-18T01:10:20.227Z,992.7
2023-03-18T01:11:21.639Z,992.7
2023-03-18T01:12:23.051Z,992.7
2023-03-18T01:13:24.468Z,992.7
2023-03-18T01:14:25.888Z,992.7
2023-03-18T01:15:27.026Z,992.7
2023-03-18T01:16:28.624Z,992.7
2023-03-18T01:17:29.803Z,992.7
2023-03-18T01:18:31.218Z,992.7
2023-03-18T01:19:32.630Z,992.8
2023-03-18T01:20:34.471Z,992.8
2023-03-18T01:21:35.889Z,992.8
2023-03-18T01:22:37.302Z,992.8
2023-03-18T01:23:38.717Z,992.8
2023-03-18T01:24:40.138Z,992.8
2023-03-18T01:25:41.552Z,992.7
2023-03-18T01:26:42.964Z,992.7
2023-03-18T01:27:44.381Z,992.7
2023-03-18T01:28:45.797Z,992.7
2023-03-18T01:29:47.213Z,992.7
2023-03-18T01:30:48.645Z,992.7
2023-03-18T01:31:50.230Z,992.8
2023-03-18T01:32:51.754Z,992.8
2023-03-18T01:33:53.391Z,992.9
2023-03-18T01:34:54.527Z,992.9
2023-03-18T01:35:56.127Z,992.9
2023-03-18T01:36:57.710Z,992.9
2023-03-18T01:38:59.800Z,992.9
2023-03-18T01:40:01.213Z,992.9
2023-03-18T01:41:02.359Z,992.9
2023-03-18T01:42:03.892Z,992.9
2023-03-18T01:43:05.308Z,993
2023-03-18T01:44:06.209Z,993
2023-03-18T01:45:07.619Z,993
2023-03-18T01:46:09.168Z,993
2023-03-18T01:47:10.712Z,993.1
2023-03-18T01:48:12.103Z,993.1
2023-03-18T01:49:13.517Z,993.1
2023-03-18T01:50:14.926Z,993.1
2023-03-18T01:51:16.347Z,993.2
2023-03-18T01:52:17.763Z,993.2
2023-03-18T01:53:18.898Z,993.2
2023-03-18T01:54:20.315Z,993.3
2023-03-18T01:55:21.726Z,993.3
2023-03-18T01:56:23.151Z,993.3
2023-03-18T01:57:24.562Z,993.3
2023-03-18T01:58:25.980Z,993.3
2023-03-18T01:59:27.394Z,993.3
2023-03-18T02:00:28.822Z,993.3
2023-03-18T02:01:30.535Z,993.2
2023-03-18T02:02:32.112Z,993.2
2023-03-18T02:03:33.274Z,993.3
2023-03-18T02:04:34.685Z,993.3
2023-03-18T02:05:35.848Z,993.3
2023-03-18T02:06:37.249Z,993.2
2023-03-18T02:07:38.658Z,993.3
2023-03-18T02:08:40.071Z,993.2
2023-03-18T02:09:41.491Z,993.2
2023-03-18T02:10:42.670Z,993.2
2023-03-18T02:11:43.525Z,993.2
2023-03-18T02:12:44.943Z,993.2
2023-03-18T02:13:46.079Z,993.2
2023-03-18T02:14:47.492Z,993.2
2023-03-18T02:15:48.915Z,993.3
2023-03-18T02:16:50.108Z,993.3
2023-03-18T02:17:51.483Z,993.3
2023-03-18T02:18:52.372Z,993.3
2023-03-18T02:19:53.781Z,993.3
2023-03-18T02:20:55.204Z,993.3
2023-03-18T02:21:56.334Z,993.3
2023-03-18T02:22:57.479Z,993.3
2023-03-18T02:23:58.901Z,993.4
2023-03-18T02:25:00.025Z,993.3
2023-03-18T02:26:01.442Z,993.3
2023-03-18T02:27:02.669Z,993.3
2023-03-18T02:28:04.082Z,993.3
2023-03-18T02:29:05.219Z,993.3
2023-03-18T02:30:06.701Z,993.3
2023-03-18T02:31:08.050Z,993.3
2023-03-18T02:32:08.891Z,993.3
2023-03-18T02:33:10.516Z,993.3
2023-03-18T02:34:12.631Z,993.3
2023-03-18T02:35:13.737Z,993.3
2023-03-18T02:36:14.886Z,993.3
2023-03-18T02:37:16.306Z,993.3
2023-03-18T02:38:17.729Z,993.3
2023-03-18T02:39:18.855Z,993.3
2023-03-18T02:40:20.278Z,993.3
2023-03-18T02:41:21.407Z,993.4
2023-03-18T02:42:22.607Z,993.4
2023-03-18T02:43:23.757Z,993.3
2023-03-18T02:44:25.156Z,993.3
2023-03-18T02:45:26.307Z,993.4
2023-03-18T02:46:27.409Z,993.4
2023-03-18T02:47:28.808Z,993.4
2023-03-18T02:48:30.239Z,993.4
2023-03-18T02:49:31.639Z,993.4
2023-03-18T02:50:33.453Z,993.4
2023-03-18T02:51:35.106Z,993.4
2023-03-18T02:52:36.253Z,993.4
2023-03-18T02:53:37.379Z,993.4
2023-03-18T02:54:38.790Z,993.4
2023-03-18T02:55:40.207Z,993.4
2023-03-18T02:56:41.653Z,993.4
2023-03-18T02:57:43.095Z,993.4
2023-03-18T02:58:44.474Z,993.4
2023-03-18T02:59:45.892Z,993.4
2023-03-18T03:00:47.027Z,993.4
2023-03-18T03:01:48.475Z,993.5
2023-03-18T03:02:49.592Z,993.4
2023-03-18T03:03:51.094Z,993.5
2023-03-18T03:04:52.492Z,993.4
2023-03-18T03:05:53.905Z,993.4
2023-03-18T03:06:55.323Z,993.4
2023-03-18T03:07:56.760Z,993.4
2023-03-18T03:08:58.147Z,993.4
2023-03-18T03:09:59.335Z,993.5
2023-03-18T03:11:00.749Z,993.5
2023-03-18T03:12:02.186Z,993.5
2023-03-18T03:13:02.793Z,993.5
2023-03-18T03:14:04.209Z,993.6
2023-03-18T03:15:05.636Z,993.6
2023-03-18T03:16:06.869Z,993.6
2023-03-18T03:17:08.166Z,993.6
2023-03-18T03:18:09.300Z,993.6
2023-03-18T03:19:10.747Z,993.6
2023-03-18T03:20:11.858Z,993.6
2023-03-18T03:21:12.499Z,993.7
2023-03-18T03:22:13.914Z,993.7
2023-03-18T03:23:15.050Z,993.7
2023-03-18T03:24:16.463Z,993.7
2023-03-18T03:25:17.878Z,993.7
2023-03-18T03:26:19.301Z,993.7
2023-03-18T03:27:20.712Z,993.8
2023-03-18T03:28:22.131Z,993.7
2023-03-18T03:29:23.263Z,993.7
2023-03-18T03:30:24.119Z,993.7
2023-03-18T03:31:25.754Z,993.7
2023-03-18T03:32:26.909Z,993.7
2023-03-18T03:33:27.764Z,993.7
2023-03-18T03:34:29.204Z,993.7
2023-03-18T03:35:31.024Z,993.7
2023-03-18T03:36:32.658Z,993.6
2023-03-18T03:37:33.833Z,993.6
2023-03-18T03:38:35.253Z,993.7
2023-03-18T03:39:36.681Z,993.7
2023-03-18T03:40:38.102Z,993.7
2023-03-18T03:41:39.219Z,993.7
2023-03-18T03:42:40.142Z,993.7
2023-03-18T03:43:41.293Z,993.7
2023-03-18T03:44:42.499Z,993.8
2023-03-18T03:45:43.903Z,993.8
2023-03-18T03:46:44.647Z,993.8
2023-03-18T03:47:46.063Z,993.7
2023-03-18T03:48:47.495Z,993.7
2023-03-18T03:49:48.942Z,993.8
2023-03-18T03:50:50.334Z,993.8
2023-03-18T03:51:51.749Z,993.8
2023-03-18T03:52:53.173Z,993.8
2023-03-18T03:53:54.580Z,993.8
2023-03-18T03:54:55.997Z,993.8
2023-03-18T03:55:59.645Z,993.8
2023-03-18T03:57:01.063Z,993.8
2023-03-18T03:58:02.488Z,993.8
2023-03-18T03:59:03.897Z,993.7
2023-03-18T04:00:05.319Z,993.7
2023-03-18T04:01:06.770Z,993.7
2023-03-18T04:02:08.158Z,993.7
2023-03-18T04:03:09.570Z,993.7
2023-03-18T04:04:11.033Z,993.7
2023-03-18T04:05:12.525Z,993.7
2023-03-18T04:06:13.913Z,993.7
2023-03-18T04:07:15.338Z,993.7
2023-03-18T04:08:16.922Z,993.7
2023-03-18T04:09:18.336Z,993.7
2023-03-18T04:10:19.748Z,993.7
2023-03-18T04:11:21.172Z,993.7
2023-03-18T04:12:22.582Z,993.7
2023-03-18T04:13:23.999Z,993.7
2023-03-18T04:14:25.422Z,993.7
2023-03-18T04:15:26.832Z,993.7
2023-03-18T04:16:28.391Z,993.7
2023-03-18T04:17:29.480Z,993.7
2023-03-18T04:18:30.894Z,993.7
2023-03-18T04:19:32.023Z,993.7
2023-03-18T04:20:33.996Z,993.7
2023-03-18T04:21:35.475Z,993.7
2023-03-18T04:22:36.893Z,993.8
2023-03-18T04:23:38.429Z,993.8
2023-03-18T04:24:39.855Z,993.8
2023-03-18T04:25:41.259Z,993.8
2023-03-18T04:26:42.675Z,993.8
2023-03-18T04:27:44.106Z,993.8
2023-03-18T04:28:45.515Z,993.8
2023-03-18T04:29:46.922Z,993.7
2023-03-18T04:30:48.343Z,993.8
2023-03-18T04:31:49.894Z,993.8
2023-03-18T04:32:51.193Z,993.8
2023-03-18T04:33:52.724Z,993.8
2023-03-18T04:34:54.137Z,993.8
2023-03-18T04:35:56.235Z,993.8
2023-03-18T04:36:57.706Z,993.8
2023-03-18T04:37:59.119Z,993.8
2023-03-18T04:39:00.541Z,993.8
2023-03-18T04:40:01.957Z,993.8
2023-03-18T04:41:03.399Z,993.8
2023-03-18T04:42:04.813Z,993.8
2023-03-18T04:43:06.223Z,993.8
2023-03-18T04:44:07.645Z,993.8
2023-03-18T04:45:09.054Z,993.8
2023-03-18T04:46:10.510Z,993.9
2023-03-18T04:47:12.075Z,994
2023-03-18T04:48:13.480Z,993.9
2023-03-18T04:49:14.964Z,993.9
2023-03-18T04:50:16.393Z,993.9
2023-03-18T04:51:17.839Z,993.9
2023-03-18T04:52:19.231Z,993.9
2023-03-18T04:53:20.642Z,993.9
2023-03-18T04:54:22.462Z,994
2023-03-18T04:55:24.420Z,994
2023-03-18T04:56:26.052Z,994
2023-03-18T04:57:27.466Z,994
2023-03-18T04:58:28.921Z,994.1
2023-03-18T04:59:30.299Z,994.1
2023-03-18T05:00:31.716Z,994.1
2023-03-18T05:01:33.130Z,994.1
2023-03-18T05:02:34.812Z,994.1
2023-03-18T05:03:36.507Z,994.2
2023-03-18T05:04:38.089Z,994.2
2023-03-18T05:05:39.952Z,994.2
2023-03-18T05:06:41.391Z,994.3
2023-03-18T05:07:42.787Z,994.3
2023-03-18T05:08:44.200Z,994.3
2023-03-18T05:09:45.620Z,994.3
2023-03-18T05:10:46.760Z,994.3
2023-03-18T05:11:48.172Z,994.2
2023-03-18T05:12:49.617Z,994.2
2023-03-18T05:13:51.008Z,994.2
2023-03-18T05:14:52.427Z,994.2
2023-03-18T05:15:53.609Z,994.2
2023-03-18T05:16:55.023Z,994.2
2023-03-18T05:17:56.440Z,994.2
2023-03-18T05:18:57.851Z,994.2
2023-03-18T05:19:59.270Z,994.2
2023-03-18T05:21:00.690Z,994.2
2023-03-18T05:22:02.136Z,994.1
2023-03-18T05:23:03.243Z,994.1
2023-03-18T05:24:04.661Z,994.1
2023-03-18T05:25:06.090Z,994
2023-03-18T05:26:07.506Z,994.1
2023-03-18T05:27:09.015Z,994.1
2023-03-18T05:28:11.851Z,994.1
2023-03-18T05:29:13.269Z,994.1
2023-03-18T05:30:14.683Z,994.1
2023-03-18T05:31:16.100Z,994.2
2023-03-18T05:32:17.255Z,994.1
2023-03-18T05:33:18.654Z,994.1
2023-03-18T05:34:21.102Z,994.1
2023-03-18T05:35:22.518Z,994.1
2023-03-18T05:36:23.936Z,994.1
2023-03-18T05:37:25.376Z,994.1
2023-03-18T05:38:26.766Z,994.1
2023-03-18T05:39:28.180Z,994.1
2023-03-18T05:40:29.593Z,994.1
2023-03-18T05:41:31.011Z,994.1
2023-03-18T05:42:32.665Z,994.1
2023-03-18T05:43:41.449Z,994.1
2023-03-18T05:44:42.866Z,994.1
2023-03-18T05:45:44.353Z,994
2023-03-18T05:46:45.863Z,994
2023-03-18T05:47:47.295Z,994
2023-03-18T05:48:48.704Z,994
2023-03-18T05:49:54.226Z,994
2023-03-18T05:51:00.402Z,994
2023-03-18T05:52:01.820Z,994
2023-03-18T05:53:03.260Z,994
2023-03-18T05:54:04.656Z,994
2023-03-18T05:55:06.064Z,993.9
2023-03-18T05:56:07.480Z,993.9
2023-03-18T05:57:08.907Z,994
2023-03-18T05:58:10.341Z,994
2023-03-18T05:59:11.737Z,994
2023-03-18T06:00:13.178Z,994
2023-03-18T06:01:14.566Z,994
2023-03-18T06:02:16.073Z,994
2023-03-18T06:03:17.608Z,994
2023-03-18T06:04:19.214Z,994
2023-03-18T06:05:20.650Z,994
2023-03-18T06:06:22.083Z,994
2023-03-18T06:07:23.518Z,994
2023-03-18T06:08:24.919Z,994
2023-03-18T06:09:26.319Z,994
2023-03-18T06:10:27.732Z,994.1
2023-03-18T06:11:29.161Z,994.1
2023-03-18T06:12:30.571Z,994.1
2023-03-18T06:13:32.258Z,994.1
2023-03-18T06:14:34.086Z,994.1
2023-03-18T06:15:35.500Z,994.1
2023-03-18T06:16:36.981Z,994.1
2023-03-18T06:17:38.411Z,994.2
2023-03-18T06:18:39.843Z,994.2
2023-03-18T06:19:41.255Z,994.2
2023-03-18T06:20:42.678Z,994.2
2023-03-18T06:21:44.090Z,994.2
2023-03-18T06:22:45.517Z,994.2
2023-03-18T06:23:46.966Z,994.2
2023-03-18T06:24:49.013Z,994.2
2023-03-18T06:25:50.451Z,994.1
2023-03-18T06:26:51.858Z,994.1
2023-03-18T06:27:53.299Z,994.1
2023-03-18T06:28:54.714Z,994.1
2023-03-18T06:29:56.144Z,994.1
2023-03-18T06:30:57.591Z,994.2
2023-03-18T06:31:59.049Z,994.2
2023-03-18T06:33:00.582Z,994.1
2023-03-18T06:34:02.137Z,994.1
2023-03-18T06:35:03.548Z,994.2
2023-03-18T06:36:04.985Z,994.1
2023-03-18T06:37:06.606Z,994.1
2023-03-18T06:38:08.028Z,994.1
2023-03-18T06:39:09.460Z,994.1
2023-03-18T06:40:10.862Z,994.1
2023-03-18T06:41:12.466Z,994.2
2023-03-18T06:42:13.888Z,994.1
2023-03-18T06:43:15.305Z,994.1
2023-03-18T06:44:16.713Z,994.1
2023-03-18T06:45:18.128Z,994.2
2023-03-18T06:46:19.593Z,994.2
2023-03-18T06:47:20.990Z,994.2
2023-03-18T06:48:22.401Z,994.2
2023-03-18T06:49:23.817Z,994.2
2023-03-18T06:50:25.248Z,994.2
2023-03-18T06:51:26.374Z,994.2
2023-03-18T06:52:27.784Z,994.2
2023-03-18T06:53:29.204Z,994.2
2023-03-18T06:54:30.643Z,994.3
2023-03-18T06:55:32.664Z,994.3
2023-03-18T06:56:34.899Z,994.3
2023-03-18T06:57:36.314Z,994.3
2023-03-18T06:58:37.727Z,994.3
2023-03-18T06:59:39.145Z,994.3
2023-03-18T07:00:40.594Z,994.3
2023-03-18T07:01:42.124Z,994.3
2023-03-18T07:02:43.648Z,994.3
2023-03-18T07:03:45.058Z,994.3
2023-03-18T07:04:46.559Z,994.3
2023-03-18T07:05:48.169Z,994.3
2023-03-18T07:06:49.583Z,994.3
2023-03-18T07:07:51.056Z,994.3
2023-03-18T07:08:52.435Z,994.3
2023-03-18T07:09:53.875Z,994.3
2023-03-18T07:10:58.046Z,994.3
2023-03-18T07:11:59.459Z,994.3
2023-03-18T07:13:00.881Z,994.3
2023-03-18T07:14:02.308Z,994.3
2023-03-18T07:15:03.708Z,994.3
2023-03-18T07:16:05.155Z,994.3
2023-03-18T07:17:06.695Z,994.3
2023-03-18T07:18:09.500Z,994.3
2023-03-18T07:19:13.236Z,994.3
2023-03-18T07:20:14.635Z,994.3
2023-03-18T07:21:15.814Z,994.4
2023-03-18T07:22:17.277Z,994.4
2023-03-18T07:23:18.692Z,994.4
2023-03-18T07:24:20.135Z,994.5
2023-03-18T07:25:23.359Z,994.5
2023-03-18T07:26:24.769Z,994.5
2023-03-18T07:27:26.196Z,994.5
2023-03-18T07:28:27.691Z,994.5
2023-03-18T07:29:29.107Z,994.5
2023-03-18T07:30:30.641Z,994.5
2023-03-18T07:31:32.376Z,994.5
2023-03-18T07:32:33.933Z,994.6
2023-03-18T07:33:35.471Z,994.6
2023-03-18T07:34:36.850Z,994.6
2023-03-18T07:35:38.324Z,994.6
2023-03-18T07:36:39.732Z,994.6
2023-03-18T07:37:41.143Z,994.7
2023-03-18T07:38:42.563Z,994.7
2023-03-18T07:39:44.005Z,994.7
2023-03-18T07:40:45.414Z,994.8
2023-03-18T07:41:46.808Z,994.8
2023-03-18T07:42:48.218Z,994.8
2023-03-18T07:43:49.643Z,994.8
2023-03-18T07:44:51.056Z,994.8
2023-03-18T07:45:52.470Z,994.8
2023-03-18T07:46:54.083Z,994.8
2023-03-18T07:47:55.572Z,994.8
2023-03-18T07:48:56.990Z,994.8
2023-03-18T07:49:58.405Z,994.8
2023-03-18T07:50:59.822Z,994.8
2023-03-18T07:52:01.436Z,994.8
2023-03-18T07:53:02.884Z,994.8
2023-03-18T07:54:04.294Z,994.8
2023-03-18T07:55:05.770Z,994.8
2023-03-18T07:56:07.264Z,994.8
2023-03-18T07:57:08.848Z,994.8
2023-03-18T07:58:10.323Z,994.8
2023-03-18T07:59:11.754Z,994.8
2023-03-18T08:00:13.155Z,994.8
2023-03-18T08:01:16.931Z,994.8
2023-03-18T08:02:18.568Z,994.8
2023-03-18T08:03:19.985Z,994.8
2023-03-18T08:04:21.753Z,994.8
2023-03-18T08:05:23.419Z,994.8
2023-03-18T08:06:24.847Z,994.8
2023-03-18T08:07:26.400Z,994.8
2023-03-18T08:08:27.870Z,994.8
2023-03-18T08:09:29.282Z,994.8
2023-03-18T08:10:30.772Z,994.8
2023-03-18T08:11:32.288Z,994.8
2023-03-18T08:12:53.395Z,994.8
2023-03-18T08:13:55.145Z,994.8
2023-03-18T08:14:56.591Z,994.8
2023-03-18T08:15:58.010Z,994.9
2023-03-18T08:16:59.401Z,994.9
2023-03-18T08:18:00.843Z,994.9
2023-03-18T08:19:02.236Z,994.9
2023-03-18T08:20:03.676Z,994.9
2023-03-18T08:21:05.121Z,994.9
2023-03-18T08:22:06.625Z,995
2023-03-18T08:23:08.053Z,995
2023-03-18T08:24:09.230Z,995
2023-03-18T08:25:10.689Z,995
2023-03-18T08:26:12.240Z,995
2023-03-18T08:27:13.712Z,995
2023-03-18T08:28:15.088Z,995
2023-03-18T08:29:16.518Z,995
2023-03-18T08:30:17.920Z,995
2023-03-18T08:31:19.151Z,995.1
2023-03-18T08:32:20.575Z,995.1
2023-03-18T08:33:21.998Z,995.1
2023-03-18T08:34:23.424Z,995.1
2023-03-18T08:35:24.829Z,995.1
2023-03-18T08:36:26.250Z,995.1
2023-03-18T08:37:27.658Z,995.1
2023-03-18T08:38:29.064Z,995.1
2023-03-18T08:39:30.492Z,995.2
2023-03-18T08:40:31.893Z,995.2
2023-03-18T08:41:33.316Z,995.2
2023-03-18T08:42:34.751Z,995.1
2023-03-18T08:43:39.458Z,995.1
2023-03-18T08:44:40.864Z,995.2
2023-03-18T08:45:42.481Z,995.2
2023-03-18T08:46:43.919Z,995.2
2023-03-18T08:47:45.344Z,995.1
2023-03-18T08:48:46.780Z,995.2
2023-03-18T08:49:51.489Z,995.1
2023-03-18T08:50:52.976Z,995.1
2023-03-18T08:51:54.366Z,995.1
2023-03-18T08:52:55.785Z,995.2
2023-03-18T08:53:57.208Z,995.2
2023-03-18T08:54:58.630Z,995.2
2023-03-18T08:56:03.081Z,995.2
2023-03-18T08:57:04.581Z,995.2
2023-03-18T08:58:06.070Z,995.3
2023-03-18T08:59:07.555Z,995.3
2023-03-18T09:00:09.067Z,995.3
2023-03-18T09:01:12.497Z,995.3
2023-03-18T09:02:13.941Z,995.3
2023-03-18T09:03:15.411Z,995.3
2023-03-18T09:04:16.857Z,995.3
2023-03-18T09:05:18.068Z,995.3
2023-03-18T09:06:19.464Z,995.3
2023-03-18T09:07:20.870Z,995.3
2023-03-18T09:08:22.291Z,995.3
2023-03-18T09:09:43.088Z,995.3
2023-03-18T09:10:45.577Z,995.3
2023-03-18T09:11:46.990Z,995.3
2023-03-18T09:12:48.408Z,995.3
2023-03-18T09:13:49.570Z,995.3
2023-03-18T09:14:50.963Z,995.3
2023-03-18T09:15:52.376Z,995.3
2023-03-18T09:16:53.841Z,995.3
2023-03-18T09:18:12.658Z,995.3
2023-03-18T09:19:14.144Z,995.3
2023-03-18T09:20:15.723Z,995.3
2023-03-18T09:21:17.156Z,995.3
2023-03-18T09:22:18.542Z,995.3
2023-03-18T09:23:19.960Z,995.3
2023-03-18T09:24:21.376Z,995.3
2023-03-18T09:25:22.793Z,995.3
2023-03-18T09:26:24.203Z,995.3
2023-03-18T09:27:25.632Z,995.4
2023-03-18T09:28:27.060Z,995.3
2023-03-18T09:29:28.576Z,995.4
2023-03-18T09:30:29.976Z,995.4
2023-03-18T09:31:31.491Z,995.4
2023-03-18T09:32:32.910Z,995.3
2023-03-18T09:33:34.468Z,995.3
2023-03-18T09:34:35.884Z,995.3
2023-03-18T09:35:37.528Z,995.3
2023-03-18T09:36:39.099Z,995.3
2023-03-18T09:37:40.528Z,995.3
2023-03-18T09:38:41.931Z,995.4
2023-03-18T09:39:43.837Z,995.4
2023-03-18T09:40:45.248Z,995.4
2023-03-18T09:41:46.664Z,995.4
2023-03-18T09:42:48.078Z,995.4
2023-03-18T09:43:49.500Z,995.4
2023-03-18T09:44:50.932Z,995.4
2023-03-18T09:45:54.205Z,995.4
2023-03-18T09:46:58.865Z,995.4
2023-03-18T09:48:00.500Z,995.4
2023-03-18T09:49:01.927Z,995.4
2023-03-18T09:50:03.337Z,995.4
2023-03-18T09:51:04.741Z,995.4
2023-03-18T09:52:05.923Z,995.4
2023-03-18T09:53:07.343Z,995.5
2023-03-18T09:54:08.757Z,995.5
2023-03-18T09:55:10.178Z,995.5
2023-03-18T09:56:11.585Z,995.5
2023-03-18T09:57:13.002Z,995.5
2023-03-18T09:58:14.417Z,995.5
2023-03-18T09:59:15.847Z,995.5
2023-03-18T10:00:17.322Z,995.6
2023-03-18T10:01:18.831Z,995.5
2023-03-18T10:02:20.289Z,995.6
2023-03-18T10:03:21.441Z,995.6
2023-03-18T10:04:22.847Z,995.6
2023-03-18T10:05:24.266Z,995.6
2023-03-18T10:06:25.803Z,995.6
2023-03-18T10:07:27.218Z,995.6
2023-03-18T10:08:28.634Z,995.6
2023-03-18T10:09:30.052Z,995.6
2023-03-18T10:10:31.191Z,995.6
2023-03-18T10:11:32.613Z,995.6
2023-03-18T10:12:34.023Z,995.6
2023-03-18T10:13:35.433Z,995.6
2023-03-18T10:14:37.166Z,995.6
2023-03-18T10:15:38.850Z,995.6
2023-03-18T10:16:40.250Z,995.6
2023-03-18T10:17:41.670Z,995.6
2023-03-18T10:18:42.797Z,995.7
2023-03-18T10:19:44.325Z,995.6
2023-03-18T10:20:45.732Z,995.6
2023-03-18T10:21:46.879Z,995.6
2023-03-18T10:22:48.289Z,995.6
2023-03-18T10:23:49.724Z,995.7
2023-03-18T10:24:51.123Z,995.7
2023-03-18T10:25:52.552Z,995.7
2023-03-18T10:26:53.955Z,995.7
2023-03-18T10:27:55.377Z,995.7
2023-03-18T10:28:56.888Z,995.7
2023-03-18T10:29:58.025Z,995.7
2023-03-18T10:30:59.683Z,995.7
2023-03-18T10:32:01.305Z,995.7
2023-03-18T10:33:02.744Z,995.7
2023-03-18T10:34:04.311Z,995.7
2023-03-18T10:35:05.726Z,995.7
2023-03-18T10:36:07.327Z,995.7
2023-03-18T10:37:08.476Z,995.7
2023-03-18T10:38:09.894Z,995.7
2023-03-18T10:39:11.324Z,995.7
2023-03-18T10:40:12.829Z,995.7
2023-03-18T10:41:14.492Z,995.6
2023-03-18T10:42:15.676Z,995.7
2023-03-18T10:43:17.144Z,995.6
2023-03-18T10:44:18.551Z,995.6
2023-03-18T10:45:19.945Z,995.6
2023-03-18T10:46:21.643Z,995.6
2023-03-18T10:47:23.665Z,995.6
2023-03-18T10:48:25.377Z,995.6
2023-03-18T10:49:26.796Z,995.6
2023-03-18T10:50:28.227Z,995.6
2023-03-18T10:51:29.621Z,995.6
2023-03-18T10:52:31.049Z,995.6
2023-03-18T10:53:32.458Z,995.6
2023-03-18T10:54:33.873Z,995.6
2023-03-18T10:55:35.289Z,995.6
2023-03-18T10:56:36.711Z,995.6
2023-03-18T10:57:38.124Z,995.6
2023-03-18T10:58:39.538Z,995.6
2023-03-18T10:59:40.950Z,995.6
2023-03-18T11:00:42.370Z,995.7
2023-03-18T11:01:43.828Z,995.7
2023-03-18T11:02:45.383Z,995.7
2023-03-18T11:03:46.891Z,995.7
2023-03-18T11:04:48.303Z,995.7
2023-03-18T11:05:49.728Z,995.7
2023-03-18T11:06:51.136Z,995.7
2023-03-18T11:07:52.562Z,995.7
2023-03-18T11:08:53.969Z,995.7
2023-03-18T11:09:55.389Z,995.7
2023-03-18T11:10:56.804Z,995.7
2023-03-18T11:11:58.223Z,995.6
2023-03-18T11:12:59.638Z,995.6
2023-03-18T11:14:01.092Z,995.7
2023-03-18T11:15:02.510Z,995.7
2023-03-18T11:16:03.735Z,995.6
2023-03-18T11:17:05.232Z,995.7
2023-03-18T11:18:06.620Z,995.7
2023-03-18T11:19:08.059Z,995.7
2023-03-18T11:20:09.482Z,995.7
2023-03-18T11:21:10.927Z,995.6
2023-03-18T11:22:12.310Z,995.6
2023-03-18T11:23:13.731Z,995.6
2023-03-18T11:24:15.134Z,995.6
2023-03-18T11:25:16.852Z,995.6
2023-03-18T11:26:18.319Z,995.6
2023-03-18T11:27:19.734Z,995.6
2023-03-18T11:28:21.150Z,995.6
2023-03-18T11:29:22.564Z,995.6
2023-03-18T11:30:41.297Z,995.6
2023-03-18T11:31:43.461Z,995.6
2023-03-18T11:32:45.003Z,995.6
2023-03-18T11:33:46.406Z,995.6
2023-03-18T11:34:47.813Z,995.6
2023-03-18T11:35:49.309Z,995.6
2023-03-18T11:36:50.915Z,995.6
2023-03-18T11:37:52.339Z,995.6
2023-03-18T11:38:53.741Z,995.6
2023-03-18T11:39:59.539Z,995.6
2023-03-18T11:41:00.966Z,995.6
2023-03-18T11:42:02.372Z,995.6
2023-03-18T11:43:03.788Z,995.6
2023-03-18T11:44:05.207Z,995.6
2023-03-18T11:45:06.623Z,995.6
2023-03-18T11:46:08.038Z,995.6
2023-03-18T11:47:09.454Z,995.5
2023-03-18T11:48:10.892Z,995.6
2023-03-18T11:49:12.041Z,995.5
2023-03-18T11:50:13.453Z,995.5
2023-03-18T11:52:15.441Z,995.5
2023-03-18T11:53:16.854Z,995.5
2023-03-18T11:54:18.269Z,995.6
2023-03-18T11:55:19.687Z,995.5
2023-03-18T11:56:21.104Z,995.5
2023-03-18T11:57:22.524Z,995.5
2023-03-18T11:58:23.948Z,995.5
2023-03-18T11:59:25.354Z,995.5
2023-03-18T12:00:26.772Z,995.5
2023-03-18T12:01:28.187Z,995.5
2023-03-18T12:02:29.603Z,995.5
2023-03-18T12:03:31.063Z,995.5
2023-03-18T12:04:32.652Z,995.5
2023-03-18T12:05:34.900Z,995.6
2023-03-18T12:06:36.418Z,995.5
2023-03-18T12:07:38.850Z,995.5
2023-03-18T12:08:40.266Z,995.5
2023-03-18T12:09:41.758Z,995.5
2023-03-18T12:10:43.138Z,995.5
2023-03-18T12:11:44.550Z,995.5
2023-03-18T12:12:45.974Z,995.5
2023-03-18T12:13:47.390Z,995.5
2023-03-18T12:14:48.845Z,995.5
2023-03-18T12:15:50.244Z,995.5
2023-03-18T12:16:51.778Z,995.5
2023-03-18T12:17:53.347Z,995.5
2023-03-18T12:18:54.785Z,995.4
2023-03-18T12:19:55.938Z,995.5
2023-03-18T12:20:57.352Z,995.4
2023-03-18T12:21:58.786Z,995.4
2023-03-18T12:22:59.952Z,995.4
2023-03-18T12:24:01.369Z,995.4
2023-03-18T12:25:02.503Z,995.4
2023-03-18T12:26:03.678Z,995.4
2023-03-18T12:27:05.112Z,995.4
2023-03-18T12:28:06.512Z,995.4
2023-03-18T12:29:07.936Z,995.4
2023-03-18T12:30:09.342Z,995.3
2023-03-18T12:31:10.380Z,995.4
2023-03-18T12:32:11.287Z,995.3
2023-03-18T12:33:12.460Z,995.4
2023-03-18T12:34:15.619Z,995.3
2023-03-18T12:35:19.472Z,995.3
2023-03-18T12:36:21.847Z,995.3
2023-03-18T12:37:23.264Z,995.4
2023-03-18T12:38:24.676Z,995.4
2023-03-18T12:39:26.095Z,995.4
2023-03-18T12:40:27.532Z,995.4
2023-03-18T12:41:28.711Z,995.4
2023-03-18T12:42:30.130Z,995.4
2023-03-18T12:43:31.034Z,995.4
2023-03-18T12:44:32.994Z,995.4
2023-03-18T12:45:34.935Z,995.4
2023-03-18T12:46:36.501Z,995.4
2023-03-18T12:47:37.915Z,995.4
2023-03-18T12:48:44.919Z,995.4
2023-03-18T12:49:46.381Z,995.4
2023-03-18T12:50:47.492Z,995.4
2023-03-18T12:51:48.902Z,995.4
2023-03-18T12:52:50.321Z,995.4
2023-03-18T12:53:51.748Z,995.4
2023-03-18T12:54:52.985Z,995.4
2023-03-18T12:55:54.390Z,995.4
2023-03-18T12:56:55.807Z,995.4
2023-03-18T12:57:57.220Z,995.4
2023-03-18T12:58:58.632Z,995.3
2023-03-18T12:59:59.770Z,995.3
2023-03-18T13:01:00.851Z,995.4
2023-03-18T13:02:02.499Z,995.4
2023-03-18T13:03:07.753Z,995.3
2023-03-18T13:04:09.048Z,995.3
2023-03-18T13:05:10.209Z,995.3
2023-03-18T13:06:11.601Z,995.3
2023-03-18T13:07:13.018Z,995.3
2023-03-18T13:08:14.430Z,995.3
2023-03-18T13:09:15.846Z,995.3
2023-03-18T13:10:17.264Z,995.3
2023-03-18T13:11:18.405Z,995.3
2023-03-18T13:12:19.813Z,995.3
2023-03-18T13:13:20.996Z,995.3
2023-03-18T13:14:22.135Z,995.3
2023-03-18T13:15:23.552Z,995.3
2023-03-18T13:16:24.988Z,995.2
2023-03-18T13:17:26.474Z,995.2
2023-03-18T13:18:27.925Z,995.2